sensor_id;sensor_type;location;lat;lon;timestamp;pressure;altitude;pressure_sealevel;temperature;humidity
35676;BME280;21790;42.668;23.298;2024-01-15T00:01:14;94116.38;;;5.62;41.29
35676;BME280;21790;42.668;23.298;2024-01-15T00:03:40;94106.13;;;5.75;41.31
35676;BME280;21790;42.668;23.298;2024-01-15T00:06:05;94099.03;;;5.30;41.84
35676;BME280;21790;42.668;23.298;2024-01-15T00:08:31;94117.97;;;5.37;42.13
35676;BME280;21790;42.668;23.298;2024-01-15T00:10:57;94111.28;;;5.38;42.24
35676;BME280;21790;42.668;23.298;2024-01-15T00:13:22;94093.84;;;5.45;41.88
35676;BME280;21790;42.668;23.298;2024-01-15T00:15:48;94108.47;;;5.64;41.48
35676;BME280;21790;42.668;23.298;2024-01-15T00:18:13;94096.69;;;5.76;41.14
35676;BME280;21790;42.668;23.298;2024-01-15T00:20:39;94093.50;;;5.56;41.48
35676;BME280;21790;42.668;23.298;2024-01-15T00:23:05;94109.38;;;5.61;41.17
35676;BME280;21790;42.668;23.298;2024-01-15T00:25:30;94108.25;;;5.71;40.95
35676;BME280;21790;42.668;23.298;2024-01-15T00:27:57;94107.47;;;5.70;40.96
35676;BME280;21790;42.668;23.298;2024-01-15T00:30:23;94117.25;;;5.59;40.89
35676;BME280;21790;42.668;23.298;2024-01-15T00:32:49;94110.91;;;5.62;40.82
35676;BME280;21790;42.668;23.298;2024-01-15T00:35:14;94099.22;;;5.48;41.11
35676;BME280;21790;42.668;23.298;2024-01-15T00:37:40;94103.78;;;5.52;41.07
35676;BME280;21790;42.668;23.298;2024-01-15T00:40:06;94119.59;;;5.47;41.49
35676;BME280;21790;42.668;23.298;2024-01-15T00:42:33;94101.66;;;5.34;41.74
35676;BME280;21790;42.668;23.298;2024-01-15T00:44:59;94106.13;;;5.40;41.40
35676;BME280;21790;42.668;23.298;2024-01-15T00:47:25;94102.75;;;5.36;41.59
35676;BME280;21790;42.668;23.298;2024-01-15T00:49:51;94119.31;;;5.33;41.93
35676;BME280;21790;42.668;23.298;2024-01-15T00:52:16;94109.47;;;5.10;42.26
35676;BME280;21790;42.668;23.298;2024-01-15T00:54:42;94110.13;;;5.14;42.53
35676;BME280;21790;42.668;23.298;2024-01-15T00:57:07;94086.25;;;5.02;42.45
35676;BME280;21790;42.668;23.298;2024-01-15T00:59:33;94104.91;;;4.94;42.70
35676;BME280;21790;42.668;23.298;2024-01-15T01:01:59;94107.31;;;4.80;43.11
35676;BME280;21790;42.668;23.298;2024-01-15T01:04:24;94116.28;;;5.18;42.17
35676;BME280;21790;42.668;23.298;2024-01-15T01:06:50;94098.53;;;5.10;42.29
35676;BME280;21790;42.668;23.298;2024-01-15T01:09:15;94105.00;;;5.03;42.63
35676;BME280;21790;42.668;23.298;2024-01-15T01:11:41;94103.34;;;5.06;42.50
35676;BME280;21790;42.668;23.298;2024-01-15T01:14:07;94107.19;;;4.96;42.42
35676;BME280;21790;42.668;23.298;2024-01-15T01:16:32;94105.88;;;5.00;42.60
35676;BME280;21790;42.668;23.298;2024-01-15T01:19:05;94094.16;;;4.75;43.31
35676;BME280;21790;42.668;23.298;2024-01-15T01:21:31;94088.47;;;4.69;42.99
35676;BME280;21790;42.668;23.298;2024-01-15T01:23:57;94094.25;;;4.96;42.91
35676;BME280;21790;42.668;23.298;2024-01-15T01:26:23;94098.56;;;4.85;42.99
35676;BME280;21790;42.668;23.298;2024-01-15T01:28:49;94091.00;;;4.89;42.55
35676;BME280;21790;42.668;23.298;2024-01-15T01:31:15;94089.03;;;4.77;42.90
35676;BME280;21790;42.668;23.298;2024-01-15T01:33:42;94075.56;;;4.70;42.12
35676;BME280;21790;42.668;23.298;2024-01-15T01:36:12;94078.94;;;4.99;42.32
35676;BME280;21790;42.668;23.298;2024-01-15T01:38:40;94070.16;;;4.91;41.64
35676;BME280;21790;42.668;23.298;2024-01-15T01:41:06;94072.25;;;5.00;41.41
35676;BME280;21790;42.668;23.298;2024-01-15T01:43:31;94075.66;;;4.91;41.50
35676;BME280;21790;42.668;23.298;2024-01-15T01:45:57;94067.34;;;4.95;41.73
35676;BME280;21790;42.668;23.298;2024-01-15T01:48:26;94074.47;;;4.80;42.08
35676;BME280;21790;42.668;23.298;2024-01-15T01:50:55;94050.50;;;4.84;41.97
35676;BME280;21790;42.668;23.298;2024-01-15T01:53:23;94079.41;;;4.85;42.16
35676;BME280;21790;42.668;23.298;2024-01-15T01:55:50;94070.63;;;4.77;41.96
35676;BME280;21790;42.668;23.298;2024-01-15T01:58:16;94053.22;;;4.84;41.72
35676;BME280;21790;42.668;23.298;2024-01-15T02:00:43;94065.38;;;4.95;41.56
35676;BME280;21790;42.668;23.298;2024-01-15T02:03:09;94056.25;;;4.98;41.43
35676;BME280;21790;42.668;23.298;2024-01-15T02:05:35;94066.69;;;4.91;41.34
35676;BME280;21790;42.668;23.298;2024-01-15T02:08:01;94059.13;;;4.82;41.37
35676;BME280;21790;42.668;23.298;2024-01-15T02:10:27;94034.63;;;4.66;40.85
35676;BME280;21790;42.668;23.298;2024-01-15T02:12:52;94062.97;;;4.72;41.19
35676;BME280;21790;42.668;23.298;2024-01-15T02:15:18;94043.91;;;4.81;40.81
35676;BME280;21790;42.668;23.298;2024-01-15T02:18:03;94043.34;;;4.99;40.75
35676;BME280;21790;42.668;23.298;2024-01-15T02:20:30;94055.22;;;4.45;41.79
35676;BME280;21790;42.668;23.298;2024-01-15T02:23:22;94031.78;;;4.70;41.53
35676;BME280;21790;42.668;23.298;2024-01-15T02:25:47;94010.56;;;4.48;41.64
35676;BME280;21790;42.668;23.298;2024-01-15T02:28:17;93988.88;;;4.54;41.67
35676;BME280;21790;42.668;23.298;2024-01-15T02:30:45;93995.13;;;4.67;41.45
35676;BME280;21790;42.668;23.298;2024-01-15T02:33:11;94001.78;;;4.79;41.16
35676;BME280;21790;42.668;23.298;2024-01-15T02:35:37;94006.19;;;4.63;41.39
35676;BME280;21790;42.668;23.298;2024-01-15T02:38:06;93999.19;;;4.25;42.39
35676;BME280;21790;42.668;23.298;2024-01-15T02:40:32;94009.91;;;4.44;42.38
35676;BME280;21790;42.668;23.298;2024-01-15T02:42:58;93997.34;;;4.34;42.30
35676;BME280;21790;42.668;23.298;2024-01-15T02:45:24;94005.31;;;4.41;42.22
35676;BME280;21790;42.668;23.298;2024-01-15T02:47:50;94004.66;;;4.62;42.35
35676;BME280;21790;42.668;23.298;2024-01-15T02:50:15;93995.56;;;4.53;42.12
35676;BME280;21790;42.668;23.298;2024-01-15T02:52:42;93996.56;;;4.46;42.43
35676;BME280;21790;42.668;23.298;2024-01-15T02:55:08;94001.91;;;4.37;42.30
35676;BME280;21790;42.668;23.298;2024-01-15T02:57:34;93999.75;;;4.45;42.11
35676;BME280;21790;42.668;23.298;2024-01-15T02:59:59;93996.56;;;4.46;42.68
35676;BME280;21790;42.668;23.298;2024-01-15T03:02:25;93983.00;;;4.30;42.64
35676;BME280;21790;42.668;23.298;2024-01-15T03:04:51;93991.09;;;4.46;42.48
35676;BME280;21790;42.668;23.298;2024-01-15T03:07:17;93976.78;;;4.30;42.85
35676;BME280;21790;42.668;23.298;2024-01-15T03:09:43;93987.47;;;4.49;43.06
35676;BME280;21790;42.668;23.298;2024-01-15T03:12:09;93985.84;;;4.52;42.98
35676;BME280;21790;42.668;23.298;2024-01-15T03:14:36;93977.84;;;4.57;42.67
35676;BME280;21790;42.668;23.298;2024-01-15T03:17:02;93984.09;;;4.58;42.04
35676;BME280;21790;42.668;23.298;2024-01-15T03:19:27;93986.06;;;4.45;43.11
35676;BME280;21790;42.668;23.298;2024-01-15T03:21:53;93989.53;;;4.71;41.76
35676;BME280;21790;42.668;23.298;2024-01-15T03:24:20;93969.75;;;5.01;41.16
35676;BME280;21790;42.668;23.298;2024-01-15T03:26:45;93974.97;;;5.08;41.33
35676;BME280;21790;42.668;23.298;2024-01-15T03:29:11;93973.84;;;5.18;41.02
35676;BME280;21790;42.668;23.298;2024-01-15T03:31:37;93972.16;;;4.99;41.66
35676;BME280;21790;42.668;23.298;2024-01-15T03:34:02;93969.50;;;5.08;41.32
35676;BME280;21790;42.668;23.298;2024-01-15T03:36:29;93973.47;;;5.29;41.20
35676;BME280;21790;42.668;23.298;2024-01-15T03:38:54;93962.63;;;5.25;41.26
35676;BME280;21790;42.668;23.298;2024-01-15T03:41:20;93970.63;;;4.98;41.91
35676;BME280;21790;42.668;23.298;2024-01-15T03:43:47;93972.22;;;5.08;42.37
35676;BME280;21790;42.668;23.298;2024-01-15T03:46:12;93958.63;;;4.83;42.26
35676;BME280;21790;42.668;23.298;2024-01-15T03:48:38;93959.59;;;4.89;42.79
35676;BME280;21790;42.668;23.298;2024-01-15T03:51:04;93951.31;;;4.80;42.21
35676;BME280;21790;42.668;23.298;2024-01-15T03:53:29;93963.75;;;4.93;42.62
35676;BME280;21790;42.668;23.298;2024-01-15T03:55:55;93968.66;;;4.98;42.42
35676;BME280;21790;42.668;23.298;2024-01-15T03:58:20;93958.22;;;5.06;41.93
35676;BME280;21790;42.668;23.298;2024-01-15T04:00:46;93953.03;;;4.86;42.52
35676;BME280;21790;42.668;23.298;2024-01-15T04:03:11;93962.38;;;5.11;42.16
35676;BME280;21790;42.668;23.298;2024-01-15T04:05:38;93960.72;;;5.35;41.94
35676;BME280;21790;42.668;23.298;2024-01-15T04:08:05;93941.09;;;5.36;41.85
35676;BME280;21790;42.668;23.298;2024-01-15T04:10:33;93949.13;;;5.31;41.67
35676;BME280;21790;42.668;23.298;2024-01-15T04:12:59;93956.19;;;5.41;41.43
35676;BME280;21790;42.668;23.298;2024-01-15T04:15:25;93956.38;;;5.46;41.26
35676;BME280;21790;42.668;23.298;2024-01-15T04:17:51;93957.94;;;5.47;41.49
35676;BME280;21790;42.668;23.298;2024-01-15T04:20:17;93955.63;;;5.46;41.37
35676;BME280;21790;42.668;23.298;2024-01-15T04:22:43;93947.97;;;5.41;41.17
35676;BME280;21790;42.668;23.298;2024-01-15T04:25:09;93946.47;;;5.18;41.74
35676;BME280;21790;42.668;23.298;2024-01-15T04:27:35;93952.50;;;5.13;42.25
35676;BME280;21790;42.668;23.298;2024-01-15T04:30:00;93948.53;;;4.92;42.45
35676;BME280;21790;42.668;23.298;2024-01-15T04:32:26;93958.28;;;4.81;42.74
35676;BME280;21790;42.668;23.298;2024-01-15T04:34:51;93951.94;;;4.84;42.70
35676;BME280;21790;42.668;23.298;2024-01-15T04:37:17;93957.47;;;4.58;43.34
35676;BME280;21790;42.668;23.298;2024-01-15T04:39:42;93943.56;;;4.66;43.03
35676;BME280;21790;42.668;23.298;2024-01-15T04:42:08;93953.06;;;4.74;43.11
35676;BME280;21790;42.668;23.298;2024-01-15T04:44:34;93954.06;;;4.80;43.23
35676;BME280;21790;42.668;23.298;2024-01-15T04:46:59;93940.41;;;4.54;43.66
35676;BME280;21790;42.668;23.298;2024-01-15T04:49:25;93949.16;;;4.62;43.67
35676;BME280;21790;42.668;23.298;2024-01-15T04:52:10;93934.31;;;4.38;43.85
35676;BME280;21790;42.668;23.298;2024-01-15T04:54:36;93922.91;;;4.52;43.32
35676;BME280;21790;42.668;23.298;2024-01-15T04:57:02;93923.56;;;4.56;43.35
35676;BME280;21790;42.668;23.298;2024-01-15T04:59:28;93918.00;;;4.47;43.84
35676;BME280;21790;42.668;23.298;2024-01-15T05:01:54;93922.38;;;4.44;43.83
35676;BME280;21790;42.668;23.298;2024-01-15T05:04:20;93935.75;;;4.77;42.94
35676;BME280;21790;42.668;23.298;2024-01-15T05:06:45;93905.81;;;4.60;43.15
35676;BME280;21790;42.668;23.298;2024-01-15T05:09:11;93926.75;;;4.89;42.63
35676;BME280;21790;42.668;23.298;2024-01-15T05:11:39;93923.69;;;5.09;41.95
35676;BME280;21790;42.668;23.298;2024-01-15T05:14:04;93903.75;;;4.86;42.47
35676;BME280;21790;42.668;23.298;2024-01-15T05:16:30;93902.69;;;4.84;42.31
35676;BME280;21790;42.668;23.298;2024-01-15T05:18:55;93912.44;;;4.85;42.52
35676;BME280;21790;42.668;23.298;2024-01-15T05:21:21;93921.19;;;4.80;42.85
35676;BME280;21790;42.668;23.298;2024-01-15T05:23:47;93919.91;;;4.72;42.89
35676;BME280;21790;42.668;23.298;2024-01-15T05:26:12;93922.19;;;4.73;42.86
35676;BME280;21790;42.668;23.298;2024-01-15T05:28:38;93929.56;;;4.63;43.31
35676;BME280;21790;42.668;23.298;2024-01-15T05:31:03;93926.22;;;4.81;43.19
35676;BME280;21790;42.668;23.298;2024-01-15T05:33:29;93902.78;;;4.46;43.84
35676;BME280;21790;42.668;23.298;2024-01-15T05:35:55;93920.75;;;4.34;44.05
35676;BME280;21790;42.668;23.298;2024-01-15T05:38:21;93917.81;;;4.16;45.45
35676;BME280;21790;42.668;23.298;2024-01-15T05:40:46;93919.09;;;4.49;44.27
35676;BME280;21790;42.668;23.298;2024-01-15T05:43:12;93913.22;;;4.73;43.75
35676;BME280;21790;42.668;23.298;2024-01-15T05:45:38;93910.25;;;4.80;43.58
35676;BME280;21790;42.668;23.298;2024-01-15T05:48:05;93903.16;;;4.70;43.90
35676;BME280;21790;42.668;23.298;2024-01-15T05:50:31;93894.13;;;4.82;43.40
35676;BME280;21790;42.668;23.298;2024-01-15T05:52:57;93894.31;;;4.66;43.84
35676;BME280;21790;42.668;23.298;2024-01-15T05:55:23;93876.41;;;4.52;43.70
35676;BME280;21790;42.668;23.298;2024-01-15T05:57:50;93889.16;;;4.68;44.12
35676;BME280;21790;42.668;23.298;2024-01-15T06:00:17;93890.84;;;4.52;44.03
35676;BME280;21790;42.668;23.298;2024-01-15T06:02:42;93903.63;;;4.55;44.23
35676;BME280;21790;42.668;23.298;2024-01-15T06:05:08;93901.63;;;4.34;44.85
35676;BME280;21790;42.668;23.298;2024-01-15T06:07:34;93896.47;;;4.36;44.95
35676;BME280;21790;42.668;23.298;2024-01-15T06:10:01;93888.56;;;4.51;44.52
35676;BME280;21790;42.668;23.298;2024-01-15T06:12:28;93889.75;;;4.84;43.71
35676;BME280;21790;42.668;23.298;2024-01-15T06:14:53;93895.34;;;4.81;43.48
35676;BME280;21790;42.668;23.298;2024-01-15T06:17:19;93885.09;;;4.72;43.87
35676;BME280;21790;42.668;23.298;2024-01-15T06:19:44;93888.75;;;4.56;44.27
35676;BME280;21790;42.668;23.298;2024-01-15T06:22:10;93888.00;;;4.90;43.39
35676;BME280;21790;42.668;23.298;2024-01-15T06:24:35;93894.88;;;4.95;43.80
35676;BME280;21790;42.668;23.298;2024-01-15T06:27:01;93884.22;;;5.19;43.36
35676;BME280;21790;42.668;23.298;2024-01-15T06:29:26;93888.38;;;5.23;43.29
35676;BME280;21790;42.668;23.298;2024-01-15T06:31:52;93898.56;;;5.23;43.38
35676;BME280;21790;42.668;23.298;2024-01-15T06:34:18;93893.69;;;5.48;43.33
35676;BME280;21790;42.668;23.298;2024-01-15T06:36:43;93903.25;;;5.66;42.63
35676;BME280;21790;42.668;23.298;2024-01-15T06:39:10;93900.72;;;5.50;42.83
35676;BME280;21790;42.668;23.298;2024-01-15T06:41:36;93902.47;;;5.65;42.70
35676;BME280;21790;42.668;23.298;2024-01-15T06:44:12;93890.13;;;5.92;58.68
35676;BME280;21790;42.668;23.298;2024-01-15T06:49:15;93895.00;;;7.73;42.32
35676;BME280;21790;42.668;23.298;2024-01-15T06:51:49;93899.00;;;7.63;40.41
35676;BME280;21790;42.668;23.298;2024-01-15T06:54:24;93891.56;;;7.00;40.20
35676;BME280;21790;42.668;23.298;2024-01-15T06:56:54;93888.31;;;6.47;41.09
35676;BME280;21790;42.668;23.298;2024-01-15T06:59:22;93874.59;;;6.38;41.18
35676;BME280;21790;42.668;23.298;2024-01-15T07:01:51;93864.50;;;6.25;42.93
35676;BME280;21790;42.668;23.298;2024-01-15T07:04:20;93922.69;;;6.69;41.90
35676;BME280;21790;42.668;23.298;2024-01-15T07:06:45;93910.13;;;6.50;42.47
35676;BME280;21790;42.668;23.298;2024-01-15T07:12:24;93908.41;;;6.25;42.82
35676;BME280;21790;42.668;23.298;2024-01-15T07:14:51;93910.28;;;6.07;42.51
35676;BME280;21790;42.668;23.298;2024-01-15T07:17:20;93914.94;;;6.28;42.39
35676;BME280;21790;42.668;23.298;2024-01-15T07:19:46;93913.72;;;6.20;42.59
35676;BME280;21790;42.668;23.298;2024-01-15T07:25:37;93893.47;;;6.26;41.95
35676;BME280;21790;42.668;23.298;2024-01-15T07:28:24;93853.97;;;6.24;41.59
35676;BME280;21790;42.668;23.298;2024-01-15T07:30:56;93896.72;;;6.43;42.37
35676;BME280;21790;42.668;23.298;2024-01-15T07:36:10;93856.03;;;5.93;42.79
35676;BME280;21790;42.668;23.298;2024-01-15T07:38:35;93867.94;;;6.08;43.12
35676;BME280;21790;42.668;23.298;2024-01-15T07:41:02;93898.63;;;6.24;42.48
35676;BME280;21790;42.668;23.298;2024-01-15T07:43:41;93901.78;;;6.63;41.91
35676;BME280;21790;42.668;23.298;2024-01-15T07:46:10;93891.94;;;6.35;41.94
35676;BME280;21790;42.668;23.298;2024-01-15T08:02:21;93873.13;;;6.91;41.05
35676;BME280;21790;42.668;23.298;2024-01-15T08:04:51;93873.41;;;6.84;40.84
35676;BME280;21790;42.668;23.298;2024-01-15T08:07:31;93882.72;;;6.96;40.48
35676;BME280;21790;42.668;23.298;2024-01-15T08:10:06;93882.25;;;6.88;40.61
35676;BME280;21790;42.668;23.298;2024-01-15T08:12:49;93883.19;;;7.03;40.34
35676;BME280;21790;42.668;23.298;2024-01-15T08:15:37;93900.28;;;7.17;39.97
35676;BME280;21790;42.668;23.298;2024-01-15T08:18:14;93905.94;;;7.13;40.45
35676;BME280;21790;42.668;23.298;2024-01-15T08:20:44;93912.31;;;7.10;40.01
35676;BME280;21790;42.668;23.298;2024-01-15T08:23:15;93904.41;;;7.12;39.91
35676;BME280;21790;42.668;23.298;2024-01-15T08:25:41;93917.81;;;7.01;40.38
35676;BME280;21790;42.668;23.298;2024-01-15T08:28:07;93897.84;;;6.91;40.20
35676;BME280;21790;42.668;23.298;2024-01-15T08:30:33;93900.59;;;7.19;40.28
35676;BME280;21790;42.668;23.298;2024-01-15T08:33:01;93906.53;;;7.35;39.78
35676;BME280;21790;42.668;23.298;2024-01-15T08:38:06;93885.94;;;7.31;39.57
35676;BME280;21790;42.668;23.298;2024-01-15T08:40:35;93887.75;;;7.15;39.92
35676;BME280;21790;42.668;23.298;2024-01-15T08:43:12;93881.31;;;7.46;39.38
35676;BME280;21790;42.668;23.298;2024-01-15T08:45:44;93873.09;;;7.28;39.90
35676;BME280;21790;42.668;23.298;2024-01-15T08:48:14;93882.25;;;7.15;39.64
35676;BME280;21790;42.668;23.298;2024-01-15T08:50:42;93877.09;;;7.08;40.04
35676;BME280;21790;42.668;23.298;2024-01-15T08:53:08;93873.56;;;6.62;40.45
35676;BME280;21790;42.668;23.298;2024-01-15T08:55:33;93863.66;;;6.83;40.33
35676;BME280;21790;42.668;23.298;2024-01-15T08:57:59;93881.06;;;7.07;40.43
35676;BME280;21790;42.668;23.298;2024-01-15T09:00:25;93862.38;;;7.39;39.73
35676;BME280;21790;42.668;23.298;2024-01-15T09:02:50;93840.72;;;7.41;39.63
35676;BME280;21790;42.668;23.298;2024-01-15T09:05:16;93842.63;;;7.58;39.25
35676;BME280;21790;42.668;23.298;2024-01-15T09:07:53;93836.59;;;7.87;38.67
35676;BME280;21790;42.668;23.298;2024-01-15T09:10:20;93841.38;;;7.78;39.05
35676;BME280;21790;42.668;23.298;2024-01-15T09:12:46;93802.03;;;7.86;38.85
35676;BME280;21790;42.668;23.298;2024-01-15T09:15:12;93799.84;;;7.99;38.64
35676;BME280;21790;42.668;23.298;2024-01-15T09:17:38;93797.53;;;8.07;38.11
35676;BME280;21790;42.668;23.298;2024-01-15T09:20:04;93795.56;;;7.98;38.33
35676;BME280;21790;42.668;23.298;2024-01-15T09:22:31;93786.03;;;8.09;38.06
35676;BME280;21790;42.668;23.298;2024-01-15T09:24:58;93793.13;;;8.01;38.64
35676;BME280;21790;42.668;23.298;2024-01-15T09:27:24;93778.03;;;7.96;38.86
35676;BME280;21790;42.668;23.298;2024-01-15T09:29:52;93782.50;;;8.17;38.64
35676;BME280;21790;42.668;23.298;2024-01-15T09:32:19;93773.09;;;8.24;38.64
35676;BME280;21790;42.668;23.298;2024-01-15T09:34:48;93775.84;;;8.33;38.45
35676;BME280;21790;42.668;23.298;2024-01-15T09:37:16;93771.38;;;8.35;38.45
35676;BME280;21790;42.668;23.298;2024-01-15T09:39:43;93768.97;;;8.52;37.89
35676;BME280;21790;42.668;23.298;2024-01-15T09:42:11;93771.59;;;8.85;37.96
35676;BME280;21790;42.668;23.298;2024-01-15T09:44:38;93768.31;;;9.10;38.46
35676;BME280;21790;42.668;23.298;2024-01-15T09:47:08;93738.56;;;9.29;36.81
35676;BME280;21790;42.668;23.298;2024-01-15T09:49:36;93738.78;;;9.11;37.17
35676;BME280;21790;42.668;23.298;2024-01-15T09:52:04;93721.53;;;9.31;37.66
35676;BME280;21790;42.668;23.298;2024-01-15T09:54:30;93725.31;;;9.62;37.68
35676;BME280;21790;42.668;23.298;2024-01-15T09:56:55;93716.81;;;10.01;36.58
35676;BME280;21790;42.668;23.298;2024-01-15T09:59:22;93714.84;;;10.22;36.09
35676;BME280;21790;42.668;23.298;2024-01-15T10:01:50;93728.41;;;10.40;35.84
35676;BME280;21790;42.668;23.298;2024-01-15T10:04:16;93716.72;;;10.51;36.06
35676;BME280;21790;42.668;23.298;2024-01-15T10:06:44;93727.56;;;10.74;35.13
35676;BME280;21790;42.668;23.298;2024-01-15T10:09:13;93736.06;;;10.30;35.35
35676;BME280;21790;42.668;23.298;2024-01-15T10:11:42;93718.09;;;10.61;35.52
35676;BME280;21790;42.668;23.298;2024-01-15T10:14:08;93703.50;;;11.06;34.64
35676;BME280;21790;42.668;23.298;2024-01-15T10:16:34;93675.94;;;11.17;34.24
35676;BME280;21790;42.668;23.298;2024-01-15T10:18:59;93690.28;;;11.53;33.94
35676;BME280;21790;42.668;23.298;2024-01-15T10:21:25;93662.75;;;11.69;33.91
35676;BME280;21790;42.668;23.298;2024-01-15T10:23:51;93688.13;;;11.99;32.88
35676;BME280;21790;42.668;23.298;2024-01-15T10:26:18;93667.75;;;12.02;32.68
35676;BME280;21790;42.668;23.298;2024-01-15T10:28:45;93658.56;;;11.80;32.37
35676;BME280;21790;42.668;23.298;2024-01-15T10:31:15;93677.00;;;11.25;33.13
35676;BME280;21790;42.668;23.298;2024-01-15T10:33:41;93642.47;;;11.47;32.91
35676;BME280;21790;42.668;23.298;2024-01-15T10:36:09;93669.38;;;11.78;32.59
35676;BME280;21790;42.668;23.298;2024-01-15T10:38:36;93664.88;;;11.86;32.69
35676;BME280;21790;42.668;23.298;2024-01-15T10:41:02;93653.69;;;12.11;31.52
35676;BME280;21790;42.668;23.298;2024-01-15T10:43:45;93646.91;;;12.18;30.95
35676;BME280;21790;42.668;23.298;2024-01-15T10:46:12;93668.53;;;12.08;31.88
35676;BME280;21790;42.668;23.298;2024-01-15T10:48:39;93643.44;;;12.29;31.19
35676;BME280;21790;42.668;23.298;2024-01-15T10:51:05;93640.66;;;12.29;31.05
35676;BME280;21790;42.668;23.298;2024-01-15T10:53:39;93633.38;;;12.26;31.64
35676;BME280;21790;42.668;23.298;2024-01-15T10:56:06;93630.63;;;12.31;31.88
35676;BME280;21790;42.668;23.298;2024-01-15T10:58:33;93639.84;;;12.11;31.27
35676;BME280;21790;42.668;23.298;2024-01-15T11:00:59;93633.75;;;11.59;31.83
35676;BME280;21790;42.668;23.298;2024-01-15T11:03:27;93640.34;;;11.67;31.61
35676;BME280;21790;42.668;23.298;2024-01-15T11:05:53;93621.59;;;11.83;31.63
35676;BME280;21790;42.668;23.298;2024-01-15T11:08:19;93619.16;;;12.01;31.46
35676;BME280;21790;42.668;23.298;2024-01-15T11:10:47;93617.00;;;12.33;31.68
35676;BME280;21790;42.668;23.298;2024-01-15T11:21:42;93584.88;;;13.08;30.59
35676;BME280;21790;42.668;23.298;2024-01-15T11:24:09;93597.28;;;13.13;30.47
35676;BME280;21790;42.668;23.298;2024-01-15T11:26:44;93601.56;;;13.42;31.09
35676;BME280;21790;42.668;23.298;2024-01-15T11:32:17;93606.53;;;13.65;30.20
35676;BME280;21790;42.668;23.298;2024-01-15T11:35:00;93571.25;;;12.99;30.50
35676;BME280;21790;42.668;23.298;2024-01-15T11:38:16;93608.06;;;12.99;30.31
35676;BME280;21790;42.668;23.298;2024-01-15T11:43:13;93587.63;;;12.64;31.31
35676;BME280;21790;42.668;23.298;2024-01-15T11:45:43;93583.31;;;12.57;31.28
35676;BME280;21790;42.668;23.298;2024-01-15T11:48:18;93581.34;;;12.69;30.94
35676;BME280;21790;42.668;23.298;2024-01-15T11:50:49;93593.13;;;12.41;30.92
35676;BME280;21790;42.668;23.298;2024-01-15T11:53:38;93576.03;;;12.54;30.87
35676;BME280;21790;42.668;23.298;2024-01-15T11:56:16;93570.47;;;12.43;30.92
35676;BME280;21790;42.668;23.298;2024-01-15T11:58:42;93550.50;;;12.28;30.94
35676;BME280;21790;42.668;23.298;2024-01-15T12:01:10;93562.66;;;12.41;30.77
35676;BME280;21790;42.668;23.298;2024-01-15T12:03:36;93564.31;;;12.11;31.33
35676;BME280;21790;42.668;23.298;2024-01-15T12:06:05;93560.28;;;12.06;31.65
35676;BME280;21790;42.668;23.298;2024-01-15T12:08:33;93555.22;;;11.51;32.39
35676;BME280;21790;42.668;23.298;2024-01-15T12:11:06;93556.31;;;11.65;32.56
35676;BME280;21790;42.668;23.298;2024-01-15T12:13:37;93525.38;;;11.61;32.52
35676;BME280;21790;42.668;23.298;2024-01-15T12:21:21;93520.28;;;10.69;34.40
35676;BME280;21790;42.668;23.298;2024-01-15T12:23:46;93545.88;;;10.69;34.48
35676;BME280;21790;42.668;23.298;2024-01-15T12:26:14;93557.34;;;10.31;35.68
35676;BME280;21790;42.668;23.298;2024-01-15T12:28:39;93548.06;;;10.60;34.72
35676;BME280;21790;42.668;23.298;2024-01-15T12:31:05;93550.09;;;10.90;34.33
35676;BME280;21790;42.668;23.298;2024-01-15T12:33:31;93534.63;;;11.10;33.63
35676;BME280;21790;42.668;23.298;2024-01-15T12:35:56;93537.22;;;11.24;33.60
35676;BME280;21790;42.668;23.298;2024-01-15T12:38:22;93526.53;;;11.01;33.61
35676;BME280;21790;42.668;23.298;2024-01-15T12:40:48;93517.88;;;11.24;33.70
35676;BME280;21790;42.668;23.298;2024-01-15T12:43:13;93518.66;;;11.30;33.52
35676;BME280;21790;42.668;23.298;2024-01-15T12:45:40;93521.84;;;10.81;34.09
35676;BME280;21790;42.668;23.298;2024-01-15T12:48:06;93516.81;;;10.74;34.20
35676;BME280;21790;42.668;23.298;2024-01-15T12:50:33;93517.31;;;10.78;34.51
35676;BME280;21790;42.668;23.298;2024-01-15T12:53:33;93507.53;;;11.19;33.74
35676;BME280;21790;42.668;23.298;2024-01-15T12:56:00;93522.09;;;10.77;34.48
35676;BME280;21790;42.668;23.298;2024-01-15T12:58:53;93507.03;;;11.21;33.70
35676;BME280;21790;42.668;23.298;2024-01-15T13:01:22;93518.38;;;11.23;33.65
35676;BME280;21790;42.668;23.298;2024-01-15T13:03:49;93519.22;;;10.98;33.94
35676;BME280;21790;42.668;23.298;2024-01-15T13:06:15;93501.75;;;11.17;33.72
35676;BME280;21790;42.668;23.298;2024-01-15T13:08:40;93473.13;;;11.26;33.44
35676;BME280;21790;42.668;23.298;2024-01-15T13:11:06;93496.19;;;11.12;33.79
35676;BME280;21790;42.668;23.298;2024-01-15T13:13:32;93496.81;;;10.90;34.08
35676;BME280;21790;42.668;23.298;2024-01-15T13:16:00;93480.13;;;11.16;33.82
35676;BME280;21790;42.668;23.298;2024-01-15T13:18:25;93478.97;;;10.91;34.59
35676;BME280;21790;42.668;23.298;2024-01-15T13:20:51;93498.25;;;10.80;34.51
35676;BME280;21790;42.668;23.298;2024-01-15T13:23:17;93494.25;;;10.86;34.47
35676;BME280;21790;42.668;23.298;2024-01-15T13:25:43;93481.63;;;11.11;34.61
35676;BME280;21790;42.668;23.298;2024-01-15T13:28:08;93479.69;;;11.28;34.18
35676;BME280;21790;42.668;23.298;2024-01-15T13:30:34;93490.25;;;11.30;34.12
35676;BME280;21790;42.668;23.298;2024-01-15T13:32:59;93497.72;;;10.76;35.31
35676;BME280;21790;42.668;23.298;2024-01-15T13:35:29;93486.00;;;10.92;35.28
35676;BME280;21790;42.668;23.298;2024-01-15T13:37:55;93493.78;;;10.88;35.35
35676;BME280;21790;42.668;23.298;2024-01-15T13:40:21;93480.69;;;10.83;35.33
35676;BME280;21790;42.668;23.298;2024-01-15T13:42:47;93460.66;;;10.94;35.01
35676;BME280;21790;42.668;23.298;2024-01-15T13:45:14;93480.22;;;10.90;35.46
35676;BME280;21790;42.668;23.298;2024-01-15T13:47:43;93467.66;;;10.89;35.33